createdAt,value
2018-09-20T00:00:47.808Z,1018.30
2018-09-20T00:02:15.436Z,1018.34
2018-09-20T00:03:42.829Z,1018.33
2018-09-20T00:05:09.580Z,1018.34
2018-09-20T00:06:36.957Z,1018.31
2018-09-20T00:08:04.494Z,1018.35
2018-09-20T00:09:31.805Z,1018.34
2018-09-20T00:10:58.511Z,1018.37
2018-09-20T00:12:25.819Z,1018.39
2018-09-20T00:13:52.313Z,1018.38
2018-09-20T00:15:19.418Z,1018.38
2018-09-20T00:16:46.730Z,1018.38
2018-09-20T00:18:13.426Z,1018.36
2018-09-20T00:19:39.816Z,1018.31
2018-09-20T00:21:06.555Z,1018.32
2018-09-20T00:22:33.741Z,1018.29
2018-09-20T00:24:01.506Z,1018.28
2018-09-20T00:25:28.836Z,1018.28
2018-09-20T00:26:56.496Z,1018.32
2018-09-20T00:28:23.947Z,1018.31
2018-09-20T00:29:51.282Z,1018.28
2018-09-20T00:31:19.026Z,1018.26
2018-09-20T00:34:13.879Z,1018.26
2018-09-20T00:35:41.511Z,1018.24
2018-09-20T00:37:08.462Z,1018.21
2018-09-20T00:38:35.350Z,1018.20
2018-09-20T00:40:01.919Z,1018.18
2018-09-20T00:41:29.223Z,1018.16
2018-09-20T00:42:56.883Z,1018.13
2018-09-20T00:44:24.388Z,1018.11
2018-09-20T00:45:51.732Z,1018.13
2018-09-20T00:47:18.923Z,1018.14
2018-09-20T00:48:46.326Z,1018.14
2018-09-20T00:50:13.553Z,1018.15
2018-09-20T00:51:41.012Z,1018.14
2018-09-20T00:53:08.228Z,1018.12
2018-09-20T00:54:35.849Z,1018.09
2018-09-20T00:56:03.409Z,1018.09
2018-09-20T00:57:30.923Z,1018.13
2018-09-20T00:58:58.459Z,1018.09
2018-09-20T01:00:26.006Z,1018.11
2018-09-20T01:01:53.317Z,1018.09
2018-09-20T01:03:20.948Z,1018.11
2018-09-20T01:04:48.356Z,1018.14
2018-09-20T01:06:15.893Z,1018.15
2018-09-20T01:07:43.409Z,1018.14
2018-09-20T01:09:10.965Z,1018.14
2018-09-20T01:10:38.190Z,1018.12
2018-09-20T01:12:04.988Z,1018.16
2018-09-20T01:13:32.545Z,1018.17
2018-09-20T01:14:59.382Z,1018.18
2018-09-20T01:16:26.727Z,1018.18
2018-09-20T01:17:54.287Z,1018.19
2018-09-20T01:19:20.740Z,1018.20
2018-09-20T01:20:47.443Z,1018.25
2018-09-20T01:22:14.921Z,1018.28
2018-09-20T01:23:41.737Z,1018.26
2018-09-20T01:25:08.792Z,1018.29
2018-09-20T01:26:36.073Z,1018.26
2018-09-20T01:28:02.547Z,1018.24
2018-09-20T01:29:29.255Z,1018.25
2018-09-20T01:30:56.610Z,1018.22
2018-09-20T01:32:23.988Z,1018.20
2018-09-20T01:33:50.577Z,1018.21
2018-09-20T01:35:17.984Z,1018.21
2018-09-20T01:36:45.141Z,1018.21
2018-09-20T01:38:12.366Z,1018.22
2018-09-20T01:39:39.926Z,1018.24
2018-09-20T01:41:07.330Z,1018.24
2018-09-20T01:42:34.376Z,1018.23
2018-09-20T01:44:01.902Z,1018.20
2018-09-20T01:45:28.663Z,1018.22
2018-09-20T01:46:56.170Z,1018.22
2018-09-20T01:48:23.491Z,1018.23
2018-09-20T01:49:50.284Z,1018.23
2018-09-20T01:51:17.772Z,1018.23
2018-09-20T01:52:45.195Z,1018.25
2018-09-20T01:54:12.370Z,1018.25
2018-09-20T01:55:39.753Z,1018.28
2018-09-20T01:57:07.062Z,1018.29
2018-09-20T01:58:34.443Z,1018.28
2018-09-20T02:00:01.258Z,1018.28
2018-09-20T02:01:28.747Z,1018.28
2018-09-20T02:02:56.094Z,1018.30
2018-09-20T02:04:23.735Z,1018.27
2018-09-20T02:05:51.250Z,1018.28
2018-09-20T02:07:18.628Z,1018.27
2018-09-20T02:08:46.173Z,1018.26
2018-09-20T02:10:13.726Z,1018.29
2018-09-20T02:11:40.933Z,1018.28
2018-09-20T02:13:08.471Z,1018.28
2018-09-20T02:14:35.551Z,1018.25
2018-09-20T02:16:02.984Z,1018.28
2018-09-20T02:17:30.421Z,1018.25
2018-09-20T02:18:57.963Z,1018.23
2018-09-20T02:20:25.415Z,1018.22
2018-09-20T02:21:52.976Z,1018.20
2018-09-20T02:23:19.901Z,1018.18
2018-09-20T02:24:47.286Z,1018.20
2018-09-20T02:26:14.112Z,1018.20
2018-09-20T02:27:41.346Z,1018.21
2018-09-20T02:29:08.181Z,1018.24
2018-09-20T02:30:35.422Z,1018.26
2018-09-20T02:32:02.947Z,1018.24
2018-09-20T02:33:30.623Z,1018.21
2018-09-20T02:34:57.938Z,1018.20
2018-09-20T02:36:28.604Z,1018.21
2018-09-20T02:37:53.021Z,1018.22
2018-09-20T02:39:19.716Z,1018.21
2018-09-20T02:40:47.076Z,1018.22
2018-09-20T02:42:14.396Z,1018.20
2018-09-20T02:43:41.491Z,1018.23
2018-09-20T02:45:08.544Z,1018.25
2018-09-20T02:46:35.480Z,1018.25
2018-09-20T02:48:03.056Z,1018.29
2018-09-20T02:49:30.559Z,1018.29
2018-09-20T02:50:57.569Z,1018.29
2018-09-20T02:52:25.035Z,1018.28
2018-09-20T02:53:52.491Z,1018.27
2018-09-20T02:55:18.918Z,1018.27
2018-09-20T02:56:46.345Z,1018.25
2018-09-20T02:58:13.571Z,1018.24
2018-09-20T02:59:41.081Z,1018.28
2018-09-20T03:01:07.621Z,1018.29
2018-09-20T03:02:35.083Z,1018.31
2018-09-20T03:04:02.427Z,1018.33
2018-09-20T03:05:29.908Z,1018.36
2018-09-20T03:06:57.341Z,1018.38
2018-09-20T03:08:24.775Z,1018.40
2018-09-20T03:09:52.100Z,1018.38
2018-09-20T03:11:19.691Z,1018.40
2018-09-20T03:12:47.205Z,1018.43
2018-09-20T03:14:14.579Z,1018.42
2018-09-20T03:15:41.568Z,1018.42
2018-09-20T03:17:09.036Z,1018.42
2018-09-20T03:18:36.597Z,1018.39
2018-09-20T03:20:03.873Z,1018.36
2018-09-20T03:21:31.289Z,1018.34
2018-09-20T03:22:58.055Z,1018.34
2018-09-20T03:24:25.480Z,1018.33
2018-09-20T03:25:53.015Z,1018.32
2018-09-20T03:27:19.498Z,1018.32
2018-09-20T03:28:46.096Z,1018.35
2018-09-20T03:30:13.563Z,1018.37
2018-09-20T03:31:40.775Z,1018.34
2018-09-20T03:33:08.085Z,1018.34
2018-09-20T03:34:35.557Z,1018.36
2018-09-20T03:36:02.541Z,1018.37
2018-09-20T03:37:29.102Z,1018.37
2018-09-20T03:38:56.659Z,1018.36
2018-09-20T03:40:24.258Z,1018.37
2018-09-20T03:41:51.680Z,1018.41
2018-09-20T03:43:18.500Z,1018.38
2018-09-20T03:44:44.793Z,1018.38
2018-09-20T03:46:12.428Z,1018.36
2018-09-20T03:47:39.693Z,1018.35
2018-09-20T03:49:06.941Z,1018.35
2018-09-20T03:50:34.327Z,1018.37
2018-09-20T03:52:01.618Z,1018.40
2018-09-20T03:53:29.198Z,1018.44
2018-09-20T03:54:56.688Z,1018.43
2018-09-20T03:56:24.021Z,1018.44
2018-09-20T03:57:51.399Z,1018.43
2018-09-20T03:59:18.953Z,1018.41
2018-09-20T04:00:46.057Z,1018.39
2018-09-20T04:02:13.111Z,1018.37
2018-09-20T04:03:40.651Z,1018.39
2018-09-20T04:05:08.024Z,1018.40
2018-09-20T04:06:35.336Z,1018.38
2018-09-20T04:08:02.718Z,1018.39
2018-09-20T04:09:29.969Z,1018.41
2018-09-20T04:10:57.521Z,1018.38
2018-09-20T04:12:25.106Z,1018.40
2018-09-20T04:13:52.361Z,1018.37
2018-09-20T04:15:18.855Z,1018.38
2018-09-20T04:16:46.400Z,1018.41
2018-09-20T04:18:13.937Z,1018.43
2018-09-20T04:19:41.362Z,1018.40
2018-09-20T04:21:08.211Z,1018.41
2018-09-20T04:22:35.485Z,1018.39
2018-09-20T04:24:03.139Z,1018.39
2018-09-20T04:25:30.144Z,1018.38
2018-09-20T04:26:57.615Z,1018.37
2018-09-20T04:28:25.108Z,1018.38
2018-09-20T04:29:52.490Z,1018.38
2018-09-20T04:31:20.020Z,1018.39
2018-09-20T04:32:47.516Z,1018.39
2018-09-20T04:34:14.810Z,1018.41
2018-09-20T04:35:42.334Z,1018.44
2018-09-20T04:37:09.720Z,1018.44
2018-09-20T04:38:36.937Z,1018.45
2018-09-20T04:40:04.155Z,1018.43
2018-09-20T04:41:31.734Z,1018.46
2018-09-20T04:42:59.324Z,1018.50
2018-09-20T04:44:26.578Z,1018.50
2018-09-20T04:45:54.249Z,1018.54
2018-09-20T04:47:21.638Z,1018.56
2018-09-20T04:48:49.159Z,1018.55
2018-09-20T04:50:16.548Z,1018.57
2018-09-20T04:51:43.833Z,1018.56
2018-09-20T04:53:11.370Z,1018.57
2018-09-20T04:54:38.550Z,1018.60
2018-09-20T04:56:05.927Z,1018.62
2018-09-20T04:57:32.595Z,1018.63
2018-09-20T04:59:00.045Z,1018.67
2018-09-20T05:00:26.619Z,1018.72
2018-09-20T05:01:54.293Z,1018.70
2018-09-20T05:03:21.004Z,1018.70
2018-09-20T05:04:48.276Z,1018.72
2018-09-20T05:06:15.302Z,1018.75
2018-09-20T05:07:42.732Z,1018.72
2018-09-20T05:09:10.027Z,1018.72
2018-09-20T05:10:36.447Z,1018.70
2018-09-20T05:12:04.034Z,1018.73
2018-09-20T05:13:31.387Z,1018.74
2018-09-20T05:14:58.878Z,1018.76
2018-09-20T05:16:26.358Z,1018.80
2018-09-20T05:17:53.134Z,1018.82
2018-09-20T05:19:19.618Z,1018.80
2018-09-20T05:20:47.061Z,1018.86
2018-09-20T05:22:13.485Z,1018.88
2018-09-20T05:23:40.954Z,1018.90
2018-09-20T05:25:08.378Z,1018.93
2018-09-20T05:26:35.485Z,1018.91
2018-09-20T05:28:03.020Z,1018.95
2018-09-20T05:29:30.658Z,1018.95
2018-09-20T05:30:56.962Z,1018.95
2018-09-20T05:32:24.559Z,1018.98
2018-09-20T05:33:52.075Z,1018.99
2018-09-20T05:35:18.717Z,1018.97
2018-09-20T05:36:46.272Z,1018.98
2018-09-20T05:38:13.650Z,1018.99
2018-09-20T05:39:41.161Z,1018.97
2018-09-20T05:41:07.912Z,1018.96
2018-09-20T05:42:35.143Z,1018.96
2018-09-20T05:44:02.754Z,1018.96
2018-09-20T05:45:29.762Z,1018.94
2018-09-20T05:46:57.256Z,1018.96
2018-09-20T05:48:24.637Z,1018.93
2018-09-20T05:49:52.123Z,1018.95
2018-09-20T05:51:19.546Z,1018.94
2018-09-20T05:52:54.970Z,1018.92
2018-09-20T05:54:14.555Z,1018.91
2018-09-20T05:55:41.730Z,1018.88
2018-09-20T05:57:08.459Z,1018.87
2018-09-20T05:58:35.490Z,1018.87
2018-09-20T06:00:02.789Z,1018.87
2018-09-20T06:01:30.309Z,1018.82
2018-09-20T06:02:57.814Z,1018.81
2018-09-20T06:04:25.275Z,1018.77
2018-09-20T06:05:52.896Z,1018.75
2018-09-20T06:07:18.981Z,1018.78
2018-09-20T06:08:46.261Z,1018.79
2018-09-20T06:10:12.861Z,1018.80
2018-09-20T06:11:40.331Z,1018.81
2018-09-20T06:13:07.946Z,1018.81
2018-09-20T06:14:34.961Z,1018.83
2018-09-20T06:16:02.278Z,1018.86
2018-09-20T06:17:29.996Z,1018.89
2018-09-20T06:18:56.312Z,1018.89
2018-09-20T06:20:26.180Z,1018.93
2018-09-20T06:21:50.551Z,1018.94
2018-09-20T06:23:17.737Z,1018.89
2018-09-20T06:24:45.340Z,1018.88
2018-09-20T06:26:11.966Z,1018.88
2018-09-20T06:27:39.536Z,1018.88
2018-09-20T06:29:06.950Z,1018.88
2018-09-20T06:30:34.262Z,1018.85
2018-09-20T06:32:01.677Z,1018.87
2018-09-20T06:33:29.066Z,1018.88
2018-09-20T06:34:56.666Z,1018.90
2018-09-20T06:36:24.140Z,1018.90
2018-09-20T06:37:51.721Z,1018.89
2018-09-20T06:39:18.946Z,1018.88
2018-09-20T06:40:46.600Z,1018.87
2018-09-20T06:42:13.987Z,1018.85
2018-09-20T06:43:40.937Z,1018.84
2018-09-20T06:45:08.181Z,1018.86
2018-09-20T06:46:35.636Z,1018.83
2018-09-20T06:48:02.961Z,1018.81
2018-09-20T06:49:30.654Z,1018.80
2018-09-20T06:50:58.077Z,1018.82
2018-09-20T06:52:24.741Z,1018.80
2018-09-20T06:53:52.049Z,1018.79
2018-09-20T06:55:19.637Z,1018.78
2018-09-20T06:56:47.137Z,1018.83
2018-09-20T06:58:14.170Z,1018.79
2018-09-20T06:59:41.803Z,1018.80
2018-09-20T07:01:09.219Z,1018.82
2018-09-20T07:02:36.546Z,1018.77
2018-09-20T07:04:03.987Z,1018.75
2018-09-20T07:05:31.138Z,1018.74
2018-09-20T07:06:58.736Z,1018.74
2018-09-20T07:08:26.205Z,1018.75
2018-09-20T07:09:53.641Z,1018.78
2018-09-20T07:11:21.215Z,1018.82
2018-09-20T07:12:48.804Z,1018.86
2018-09-20T07:14:16.093Z,1018.89
2018-09-20T07:15:43.589Z,1018.93
2018-09-20T07:17:11.023Z,1018.93
2018-09-20T07:18:38.426Z,1018.93
2018-09-20T07:20:06.083Z,1018.92
2018-09-20T07:21:33.489Z,1018.93
2018-09-20T07:23:00.535Z,1018.87
2018-09-20T07:24:28.040Z,1018.84
2018-09-20T07:25:55.440Z,1018.83
2018-09-20T07:27:22.947Z,1018.83
2018-09-20T07:28:50.216Z,1018.84
2018-09-20T07:30:17.817Z,1018.82
2018-09-20T07:31:45.357Z,1018.85
2018-09-20T07:33:12.822Z,1018.84
2018-09-20T07:34:40.403Z,1018.83
2018-09-20T07:36:07.546Z,1018.86
2018-09-20T07:37:35.070Z,1018.85
2018-09-20T07:39:02.675Z,1018.81
2018-09-20T07:40:29.871Z,1018.84
2018-09-20T07:41:57.016Z,1018.83
2018-09-20T07:43:24.608Z,1018.84
2018-09-20T07:44:52.128Z,1018.85
2018-09-20T07:46:19.627Z,1018.85
2018-09-20T07:47:46.575Z,1018.83
2018-09-20T07:49:14.228Z,1018.80
2018-09-20T07:50:41.625Z,1018.80
2018-09-20T07:52:09.141Z,1018.81
2018-09-20T07:53:36.101Z,1018.81
2018-09-20T07:55:03.029Z,1018.81
2018-09-20T07:56:29.966Z,1018.81
2018-09-20T07:57:57.554Z,1018.81
2018-09-20T07:59:25.098Z,1018.79
2018-09-20T08:00:52.723Z,1018.79
2018-09-20T08:02:20.225Z,1018.81
2018-09-20T08:03:47.721Z,1018.82
2018-09-20T08:05:15.238Z,1018.78
2018-09-20T08:06:42.648Z,1018.77
2018-09-20T08:08:10.047Z,1018.75
2018-09-20T08:09:37.665Z,1018.75
2018-09-20T08:11:05.087Z,1018.72
2018-09-20T08:12:32.662Z,1018.78
2018-09-20T08:13:58.982Z,1018.75
2018-09-20T08:15:26.488Z,1018.74
2018-09-20T08:16:53.930Z,1018.71
2018-09-20T08:18:21.340Z,1018.74
2018-09-20T08:19:49.151Z,1018.73
2018-09-20T08:21:16.674Z,1018.70
2018-09-20T08:22:44.177Z,1018.70
2018-09-20T08:24:11.752Z,1018.74
2018-09-20T08:25:38.291Z,1018.73
2018-09-20T08:27:05.668Z,1018.70
2018-09-20T08:28:33.230Z,1018.69
2018-09-20T08:30:00.919Z,1018.70
2018-09-20T08:31:28.585Z,1018.70
2018-09-20T08:32:55.985Z,1018.65
2018-09-20T08:34:23.060Z,1018.64
2018-09-20T08:35:50.531Z,1018.66
2018-09-20T08:37:18.036Z,1018.64
2018-09-20T08:38:45.384Z,1018.65
2018-09-20T08:40:12.226Z,1018.69
2018-09-20T08:41:39.963Z,1018.68
2018-09-20T08:43:07.125Z,1018.72
2018-09-20T08:44:33.915Z,1018.71
2018-09-20T08:46:00.853Z,1018.72
2018-09-20T08:47:28.652Z,1018.72
2018-09-20T08:48:55.757Z,1018.72
2018-09-20T08:50:23.145Z,1018.73
2018-09-20T08:51:50.696Z,1018.71
2018-09-20T08:53:18.442Z,1018.67
2018-09-20T08:54:45.878Z,1018.68
2018-09-20T08:56:12.480Z,1018.66
2018-09-20T08:57:40.289Z,1018.65
2018-09-20T08:59:07.590Z,1018.68
2018-09-20T09:00:34.546Z,1018.69
2018-09-20T09:02:01.939Z,1018.66
2018-09-20T09:03:28.879Z,1018.65
2018-09-20T09:04:56.369Z,1018.64
2018-09-20T09:06:24.021Z,1018.62
2018-09-20T09:07:51.707Z,1018.62
2018-09-20T09:09:19.276Z,1018.62
2018-09-20T09:10:46.730Z,1018.62
2018-09-20T09:12:14.471Z,1018.61
2018-09-20T09:13:42.039Z,1018.57
2018-09-20T09:15:09.554Z,1018.55
2018-09-20T09:16:36.940Z,1018.52
2018-09-20T09:18:03.775Z,1018.53
2018-09-20T09:19:30.424Z,1018.48
2018-09-20T09:20:57.060Z,1018.46
2018-09-20T09:22:24.380Z,1018.47
2018-09-20T09:23:52.170Z,1018.44
2018-09-20T09:25:19.669Z,1018.39
2018-09-20T09:26:46.568Z,1018.38
2018-09-20T09:28:13.381Z,1018.41
2018-09-20T09:29:41.001Z,1018.38
2018-09-20T09:31:08.221Z,1018.44
2018-09-20T09:32:35.604Z,1018.32
2018-09-20T09:34:03.072Z,1018.33
2018-09-20T09:35:30.570Z,1018.31
2018-09-20T09:36:58.083Z,1018.35
2018-09-20T09:38:25.296Z,1018.36
2018-09-20T09:39:52.390Z,1018.32
2018-09-20T09:41:19.694Z,1018.30
2018-09-20T09:42:47.278Z,1018.31
2018-09-20T09:44:14.133Z,1018.22
2018-09-20T09:45:41.771Z,1018.28
2018-09-20T09:47:09.442Z,1018.25
2018-09-20T09:48:36.706Z,1018.28
2018-09-20T09:50:04.244Z,1018.20
2018-09-20T09:51:31.103Z,1018.20
2018-09-20T09:52:58.786Z,1018.18
2018-09-20T09:54:25.908Z,1018.18
2018-09-20T09:55:54.318Z,1018.17
2018-09-20T09:57:21.051Z,1018.11
2018-09-20T09:58:48.103Z,1018.13
2018-09-20T10:00:15.731Z,1018.05
2018-09-20T10:01:43.251Z,1018.05
2018-09-20T10:03:10.873Z,1018.10
2018-09-20T10:04:38.233Z,1018.11
2018-09-20T10:06:06.045Z,1018.03
2018-09-20T10:07:33.057Z,1018.04
2018-09-20T10:09:00.729Z,1018.01
2018-09-20T10:10:28.362Z,1017.95
2018-09-20T10:11:55.853Z,1017.96
2018-09-20T10:13:23.778Z,1017.93
2018-09-20T10:14:51.239Z,1017.90
2018-09-20T10:16:18.217Z,1017.93
2018-09-20T10:17:45.810Z,1017.92
2018-09-20T10:19:13.327Z,1017.92
2018-09-20T10:20:41.049Z,1017.94
2018-09-20T10:22:08.637Z,1017.87
2018-09-20T10:23:36.232Z,1017.91
2018-09-20T10:25:03.494Z,1017.91
2018-09-20T10:26:31.031Z,1017.84
2018-09-20T10:27:58.772Z,1017.86
2018-09-20T10:29:26.278Z,1017.84
2018-09-20T10:30:53.926Z,1017.80
2018-09-20T10:32:21.470Z,1017.79
2018-09-20T10:33:48.229Z,1017.75
2018-09-20T10:35:15.133Z,1017.74
2018-09-20T10:36:42.733Z,1017.71
2018-09-20T10:38:09.753Z,1017.73
2018-09-20T10:39:37.405Z,1017.66
2018-09-20T10:41:05.038Z,1017.68
2018-09-20T10:42:32.828Z,1017.70
2018-09-20T10:44:00.291Z,1017.64
2018-09-20T10:45:26.957Z,1017.66
2018-09-20T10:46:54.527Z,1017.66
2018-09-20T10:48:22.028Z,1017.67
2018-09-20T10:49:48.751Z,1017.63
2018-09-20T10:51:16.333Z,1017.60
2018-09-20T10:52:44.005Z,1017.65
2018-09-20T10:54:11.496Z,1017.64
2018-09-20T10:55:38.922Z,1017.61
2018-09-20T10:57:06.490Z,1017.60
2018-09-20T10:58:33.932Z,1017.58
2018-09-20T11:00:01.441Z,1017.54
2018-09-20T11:01:29.167Z,1017.53
2018-09-20T11:02:56.661Z,1017.53
2018-09-20T11:04:24.477Z,1017.50
2018-09-20T11:05:51.789Z,1017.49
2018-09-20T11:07:19.388Z,1017.45
2018-09-20T11:08:46.129Z,1017.42
2018-09-20T11:10:13.753Z,1017.42
2018-09-20T11:11:41.033Z,1017.41
2018-09-20T11:13:07.716Z,1017.40
2018-09-20T11:14:35.051Z,1017.44
2018-09-20T11:16:02.533Z,1017.46
2018-09-20T11:17:30.034Z,1017.41
2018-09-20T11:18:57.029Z,1017.43
2018-09-20T11:20:24.712Z,1017.37
2018-09-20T11:21:52.181Z,1017.35
2018-09-20T11:23:20.034Z,1017.27
2018-09-20T11:24:47.594Z,1017.21
2018-09-20T11:26:14.798Z,1017.31
2018-09-20T11:27:42.265Z,1017.22
2018-09-20T11:29:09.971Z,1017.22
2018-09-20T11:30:37.014Z,1017.14
2018-09-20T11:32:04.579Z,1017.09
2018-09-20T11:33:32.095Z,1017.12
2018-09-20T11:34:59.793Z,1017.13
2018-09-20T11:36:27.399Z,1017.12
2018-09-20T11:37:55.032Z,1017.13
2018-09-20T11:39:22.690Z,1017.11
2018-09-20T11:40:50.180Z,1017.19
2018-09-20T11:42:17.854Z,1017.17
2018-09-20T11:43:44.712Z,1017.13
2018-09-20T11:45:11.426Z,1017.13
2018-09-20T11:46:38.831Z,1017.12
2018-09-20T11:48:06.169Z,1017.10
2018-09-20T11:49:32.720Z,1017.12
2018-09-20T11:51:00.317Z,1017.15
2018-09-20T11:52:27.872Z,1017.13
2018-09-20T11:53:55.532Z,1017.13
2018-09-20T11:55:22.968Z,1017.04
2018-09-20T11:56:50.615Z,1017.00
2018-09-20T11:58:17.462Z,1017.02
2018-09-20T11:59:45.025Z,1017.00
2018-09-20T12:01:12.535Z,1017.01
2018-09-20T12:02:40.121Z,1016.93
2018-09-20T12:04:07.758Z,1016.93
2018-09-20T12:05:35.347Z,1016.87
2018-09-20T12:07:02.931Z,1016.88
2018-09-20T12:08:30.458Z,1016.86
2018-09-20T12:09:58.036Z,1016.82
2018-09-20T12:11:25.750Z,1016.82
2018-09-20T12:12:53.313Z,1016.86
2018-09-20T12:14:21.194Z,1016.77
2018-09-20T12:15:48.650Z,1016.76
2018-09-20T12:17:16.247Z,1016.77
2018-09-20T12:18:43.162Z,1016.68
2018-09-20T12:20:10.789Z,1016.72
2018-09-20T12:21:37.612Z,1016.73
2018-09-20T12:23:05.107Z,1016.75
2018-09-20T12:24:32.638Z,1016.71
2018-09-20T12:26:00.170Z,1016.75
2018-09-20T12:27:26.843Z,1016.72
2018-09-20T12:28:54.157Z,1016.72
2018-09-20T12:30:21.813Z,1016.66
2018-09-20T12:31:48.841Z,1016.70
2018-09-20T12:33:16.309Z,1016.70
2018-09-20T12:34:43.719Z,1016.63
2018-09-20T12:36:11.290Z,1016.61
2018-09-20T12:37:38.611Z,1016.61
2018-09-20T12:39:06.091Z,1016.65
2018-09-20T12:40:33.669Z,1016.62
2018-09-20T12:42:01.445Z,1016.59
2018-09-20T12:43:29.102Z,1016.55
2018-09-20T12:44:56.847Z,1016.55
2018-09-20T12:46:23.993Z,1016.52
2018-09-20T12:47:51.657Z,1016.48
2018-09-20T12:49:19.429Z,1016.50
2018-09-20T12:50:46.981Z,1016.51
2018-09-20T12:52:14.725Z,1016.46
2018-09-20T12:53:42.318Z,1016.47
2018-09-20T12:55:09.448Z,1016.47
2018-09-20T12:56:37.096Z,1016.48
2018-09-20T12:58:04.082Z,1016.42
2018-09-20T12:59:31.313Z,1016.40
2018-09-20T13:00:59.090Z,1016.37
2018-09-20T13:02:26.750Z,1016.40
2018-09-20T13:03:54.426Z,1016.45
2018-09-20T13:05:21.377Z,1016.34
2018-09-20T13:06:49.022Z,1016.33
2018-09-20T13:08:16.671Z,1016.31
2018-09-20T13:09:44.207Z,1016.32
2018-09-20T13:11:11.650Z,1016.27
2018-09-20T13:12:39.126Z,1016.26
2018-09-20T13:14:06.195Z,1016.27
2018-09-20T13:15:33.878Z,1016.25
2018-09-20T13:17:01.450Z,1016.22
2018-09-20T13:18:28.755Z,1016.19
2018-09-20T13:19:55.572Z,1016.23
2018-09-20T13:21:23.235Z,1016.23
2018-09-20T13:22:50.846Z,1016.24
2018-09-20T13:24:18.398Z,1016.23
2018-09-20T13:25:45.946Z,1016.24
2018-09-20T13:27:13.601Z,1016.23
2018-09-20T13:28:40.538Z,1016.18
2018-09-20T13:30:08.126Z,1016.20
2018-09-20T13:31:35.639Z,1016.19
2018-09-20T13:33:03.349Z,1016.16
2018-09-20T13:34:31.111Z,1016.14
2018-09-20T13:35:58.794Z,1016.16
2018-09-20T13:37:26.430Z,1016.19
2018-09-20T13:38:53.943Z,1016.17
2018-09-20T13:40:21.036Z,1016.20
2018-09-20T13:41:48.507Z,1016.20
2018-09-20T13:43:16.172Z,1016.22
2018-09-20T13:44:43.091Z,1016.21
2018-09-20T13:46:10.381Z,1016.22
2018-09-20T13:47:37.958Z,1016.23
2018-09-20T13:49:05.574Z,1016.19
2018-09-20T13:50:33.109Z,1016.15
2018-09-20T13:52:00.759Z,1016.13
2018-09-20T13:53:28.417Z,1016.12
2018-09-20T13:54:55.891Z,1016.11
2018-09-20T13:56:23.696Z,1016.11
2018-09-20T13:57:51.371Z,1016.14
2018-09-20T13:59:19.020Z,1016.13
2018-09-20T14:00:46.462Z,1016.09
2018-09-20T14:02:14.046Z,1016.10
2018-09-20T14:03:41.711Z,1016.06
2018-09-20T14:05:08.716Z,1016.07
2018-09-20T14:06:35.731Z,1016.06
2018-09-20T14:08:03.379Z,1016.02
2018-09-20T14:09:30.878Z,1016.02
2018-09-20T14:10:58.383Z,1016.00
2018-09-20T14:12:26.131Z,1015.97
2018-09-20T14:13:53.836Z,1015.99
2018-09-20T14:15:21.603Z,1015.98
2018-09-20T14:16:49.239Z,1015.97
2018-09-20T14:18:15.810Z,1015.98
2018-09-20T14:19:42.235Z,1015.97
2018-09-20T14:21:10.417Z,1015.94
2018-09-20T14:22:37.265Z,1015.95
2018-09-20T14:24:03.740Z,1015.98
2018-09-20T14:25:31.078Z,1015.99
2018-09-20T14:26:58.920Z,1015.97
2018-09-20T14:28:25.138Z,1015.98
2018-09-20T14:29:52.635Z,1016.00
2018-09-20T14:31:20.463Z,1015.97
2018-09-20T14:32:48.118Z,1015.97
2018-09-20T14:34:15.710Z,1015.95
2018-09-20T14:35:43.378Z,1015.89
2018-09-20T14:37:10.931Z,1015.89
2018-09-20T14:38:38.422Z,1015.86
2018-09-20T14:40:06.132Z,1015.83
2018-09-20T14:41:33.123Z,1015.83
2018-09-20T14:43:00.790Z,1015.84
2018-09-20T14:44:28.468Z,1015.87
2018-09-20T14:45:55.985Z,1015.87
2018-09-20T14:47:23.643Z,1015.84
2018-09-20T14:48:51.311Z,1015.85
2018-09-20T14:50:18.545Z,1015.81
2018-09-20T14:51:46.192Z,1015.79
2018-09-20T14:53:13.778Z,1015.78
2018-09-20T14:54:41.211Z,1015.78
2018-09-20T14:56:08.754Z,1015.74
2018-09-20T14:57:36.122Z,1015.76
2018-09-20T14:59:03.585Z,1015.76
2018-09-20T15:00:31.030Z,1015.72
2018-09-20T15:01:58.566Z,1015.74
2018-09-20T15:03:26.127Z,1015.73
2018-09-20T15:04:53.753Z,1015.71
2018-09-20T15:06:20.607Z,1015.72
2018-09-20T15:07:48.123Z,1015.69
2018-09-20T15:09:15.595Z,1015.70
2018-09-20T15:10:43.024Z,1015.71
2018-09-20T15:12:10.471Z,1015.65
2018-09-20T15:13:38.222Z,1015.63
2018-09-20T15:15:05.833Z,1015.60
2018-09-20T15:16:33.303Z,1015.60
2018-09-20T15:18:00.987Z,1015.58
2018-09-20T15:19:28.353Z,1015.58
2018-09-20T15:20:55.989Z,1015.59
2018-09-20T15:22:22.841Z,1015.62
2018-09-20T15:23:50.493Z,1015.63
2018-09-20T15:25:18.266Z,1015.65
2018-09-20T15:26:45.794Z,1015.66
2018-09-20T15:28:12.959Z,1015.66
2018-09-20T15:29:40.003Z,1015.68
2018-09-20T15:31:07.532Z,1015.69
2018-09-20T15:32:34.962Z,1015.69
2018-09-20T15:34:02.544Z,1015.67
2018-09-20T15:35:30.204Z,1015.67
2018-09-20T15:36:57.795Z,1015.63
2018-09-20T15:38:25.345Z,1015.63
2018-09-20T15:39:53.100Z,1015.63
2018-09-20T15:41:30.260Z,1015.62
2018-09-20T15:42:57.816Z,1015.65
2018-09-20T15:44:24.244Z,1015.60
2018-09-20T15:45:51.934Z,1015.60
2018-09-20T15:47:18.875Z,1015.58
2018-09-20T15:48:46.428Z,1015.59
2018-09-20T15:50:14.101Z,1015.55
2018-09-20T15:51:41.315Z,1015.54
2018-09-20T15:53:08.584Z,1015.50
2018-09-20T15:54:32.387Z,1015.51
2018-09-20T15:56:02.955Z,1015.49
2018-09-20T15:57:30.632Z,1015.47
2018-09-20T15:58:58.245Z,1015.48
2018-09-20T16:00:25.821Z,1015.50
2018-09-20T16:01:53.343Z,1015.48
2018-09-20T16:03:21.092Z,1015.54
2018-09-20T16:04:48.482Z,1015.53
2018-09-20T16:06:15.224Z,1015.53
2018-09-20T16:07:42.772Z,1015.53
2018-09-20T16:09:10.373Z,1015.52
2018-09-20T16:10:37.874Z,1015.54
2018-09-20T16:12:05.133Z,1015.53
2018-09-20T16:13:32.967Z,1015.52
2018-09-20T16:15:00.495Z,1015.53
2018-09-20T16:16:28.104Z,1015.48
2018-09-20T16:17:55.624Z,1015.50
2018-09-20T16:19:23.137Z,1015.50
2018-09-20T16:20:50.767Z,1015.52
2018-09-20T16:22:18.421Z,1015.52
2018-09-20T16:23:45.642Z,1015.50
2018-09-20T16:25:13.044Z,1015.51
2018-09-20T16:26:40.613Z,1015.50
2018-09-20T16:28:08.082Z,1015.49
2018-09-20T16:29:35.578Z,1015.48
2018-09-20T16:31:03.147Z,1015.48
2018-09-20T16:32:27.515Z,1015.47
2018-09-20T16:33:58.161Z,1015.45
2018-09-20T16:35:25.834Z,1015.40
2018-09-20T16:36:53.306Z,1015.38
2018-09-20T16:38:20.940Z,1015.40
2018-09-20T16:39:48.432Z,1015.38
2018-09-20T16:41:15.814Z,1015.37
2018-09-20T16:42:43.318Z,1015.38
2018-09-20T16:44:10.873Z,1015.38
2018-09-20T16:45:38.377Z,1015.41
2018-09-20T16:47:05.195Z,1015.38
2018-09-20T16:48:32.802Z,1015.38
2018-09-20T16:50:00.062Z,1015.36
2018-09-20T16:51:27.396Z,1015.36
2018-09-20T16:52:54.362Z,1015.33
2018-09-20T16:54:21.903Z,1015.32
2018-09-20T16:55:49.508Z,1015.32
2018-09-20T16:57:17.050Z,1015.32
2018-09-20T16:58:44.730Z,1015.30
2018-09-20T17:00:12.382Z,1015.27
2018-09-20T17:01:39.650Z,1015.27
2018-09-20T17:03:07.190Z,1015.25
2018-09-20T17:04:34.685Z,1015.24
2018-09-20T17:06:01.872Z,1015.23
2018-09-20T17:07:29.271Z,1015.23
2018-09-20T17:08:57.020Z,1015.21
2018-09-20T17:10:24.457Z,1015.18
2018-09-20T17:11:51.457Z,1015.18
2018-09-20T17:13:18.972Z,1015.18
2018-09-20T17:14:46.647Z,1015.13
2018-09-20T17:16:14.056Z,1015.12
2018-09-20T17:17:41.010Z,1015.11
2018-09-20T17:19:07.984Z,1015.10
2018-09-20T17:20:35.527Z,1015.10
2018-09-20T17:22:03.084Z,1015.09
2018-09-20T17:23:29.839Z,1015.11
2018-09-20T17:24:57.265Z,1015.12
2018-09-20T17:26:25.157Z,1015.14
2018-09-20T17:27:52.152Z,1015.17
2018-09-20T17:29:19.837Z,1015.15
2018-09-20T17:30:47.404Z,1015.12
2018-09-20T17:32:14.943Z,1015.12
2018-09-20T17:33:42.263Z,1015.15
2018-09-20T17:35:09.413Z,1015.17
2018-09-20T17:36:36.979Z,1015.16
2018-09-20T17:38:04.495Z,1015.14